createdAt,value
2023-04-02T00:00:04.683Z,1.40
2023-04-02T00:02:39.293Z,1.60
2023-04-02T00:05:06.086Z,1.10
2023-04-02T00:07:33.793Z,1.20
2023-04-02T00:10:00.574Z,1.30
2023-04-02T00:12:27.297Z,1.60
2023-04-02T00:14:54.146Z,1.30
2023-04-02T00:17:20.944Z,1.67
2023-04-02T00:19:47.778Z,1.60
2023-04-02T00:22:14.432Z,2.00
2023-04-02T00:24:41.198Z,1.50
2023-04-02T00:27:08.013Z,1.30
2023-04-02T00:29:34.794Z,1.23
2023-04-02T00:32:01.625Z,1.10
2023-04-02T00:34:28.329Z,1.17
2023-04-02T00:36:55.090Z,1.10
2023-04-02T00:39:21.873Z,1.08
2023-04-02T00:41:48.629Z,1.35
2023-04-02T00:44:15.436Z,1.15
2023-04-02T00:46:51.230Z,1.30
2023-04-02T00:49:17.976Z,1.08
2023-04-02T00:51:44.646Z,1.13
2023-04-02T00:54:15.892Z,1.08
2023-04-02T00:56:42.783Z,1.50
2023-04-02T00:59:09.578Z,1.10
2023-04-02T01:01:36.784Z,1.40
2023-04-02T01:04:03.637Z,1.15
2023-04-02T01:06:31.153Z,1.05
2023-04-02T01:08:57.893Z,1.30
2023-04-02T01:11:24.652Z,1.55
2023-04-02T01:13:51.398Z,1.33
2023-04-02T01:16:18.443Z,1.42
2023-04-02T01:18:50.315Z,1.48
2023-04-02T01:21:17.922Z,1.50
2023-04-02T01:23:44.734Z,1.33
2023-04-02T01:26:11.572Z,1.60
2023-04-02T01:28:38.218Z,1.88
2023-04-02T01:31:05.172Z,2.03
2023-04-02T01:33:31.900Z,2.25
2023-04-02T01:35:59.006Z,2.90
2023-04-02T01:38:25.947Z,2.22
2023-04-02T01:40:52.724Z,2.28
2023-04-02T01:43:19.418Z,2.50
2023-04-02T01:45:46.155Z,2.78
2023-04-02T01:48:12.891Z,2.83
2023-04-02T01:50:39.739Z,2.83
2023-04-02T01:53:06.493Z,2.80
2023-04-02T01:55:35.363Z,2.90
2023-04-02T01:58:02.329Z,3.17
2023-04-02T02:00:30.353Z,3.15
2023-04-02T02:02:57.883Z,3.65
2023-04-02T02:05:24.749Z,3.75
2023-04-02T02:07:54.353Z,3.17
2023-04-02T02:10:21.358Z,3.58
2023-04-02T02:12:48.059Z,3.22
2023-04-02T02:15:14.928Z,2.88
2023-04-02T02:17:41.609Z,3.47
2023-04-02T02:20:12.450Z,3.30
2023-04-02T02:22:39.616Z,3.50
2023-04-02T02:25:06.494Z,3.28
2023-04-02T02:27:33.297Z,3.20
2023-04-02T02:30:07.580Z,3.78
2023-04-02T02:32:34.629Z,3.67
2023-04-02T02:35:02.004Z,3.70
2023-04-02T02:37:29.198Z,3.70
2023-04-02T02:39:56.875Z,3.90
2023-04-02T02:42:24.966Z,3.60
2023-04-02T02:44:53.162Z,3.40
2023-04-02T02:47:19.995Z,3.60
2023-04-02T02:49:46.725Z,3.78
2023-04-02T02:52:13.855Z,3.63
2023-04-02T02:54:47.969Z,3.75
2023-04-02T02:57:15.064Z,4.10
2023-04-02T02:59:41.827Z,3.40
2023-04-02T03:02:08.670Z,4.00
2023-04-02T03:04:36.612Z,4.07
2023-04-02T03:07:09.202Z,4.78
2023-04-02T03:09:36.484Z,4.40
2023-04-02T03:12:03.871Z,4.53
2023-04-02T03:14:31.232Z,5.07
2023-04-02T03:16:57.980Z,4.55
2023-04-02T03:19:26.160Z,4.72
2023-04-02T03:21:53.299Z,4.47
2023-04-02T03:24:21.126Z,4.35
2023-04-02T03:26:48.421Z,4.15
2023-04-02T03:29:15.558Z,4.20
2023-04-02T03:31:42.915Z,3.85
2023-04-02T03:34:10.069Z,4.05
2023-04-02T03:36:38.377Z,3.80
2023-04-02T03:39:05.705Z,3.97
2023-04-02T03:41:33.059Z,4.32
2023-04-02T03:43:59.866Z,4.13
2023-04-02T03:46:27.035Z,4.15
2023-04-02T03:48:55.421Z,3.55
2023-04-02T03:51:22.622Z,4.05
2023-04-02T03:53:49.418Z,3.72
2023-04-02T03:56:16.665Z,4.10
2023-04-02T03:58:43.573Z,4.38
2023-04-02T04:01:12.482Z,3.83
2023-04-02T04:03:39.658Z,3.58
2023-04-02T04:06:06.469Z,3.85
2023-04-02T04:08:33.272Z,4.20
2023-04-02T04:11:00.031Z,3.70
2023-04-02T04:13:26.917Z,4.40
2023-04-02T04:15:54.031Z,4.68
2023-04-02T04:18:21.634Z,4.60
2023-04-02T04:20:50.025Z,5.35
2023-04-02T04:23:18.620Z,4.75
2023-04-02T04:25:45.719Z,4.63
2023-04-02T04:28:16.627Z,4.30
2023-04-02T04:30:44.573Z,3.70
2023-04-02T04:33:11.294Z,5.07
2023-04-02T04:35:38.986Z,4.68
2023-04-02T04:38:12.168Z,4.20
2023-04-02T04:40:40.496Z,3.95
2023-04-02T04:43:07.285Z,3.63
2023-04-02T04:45:34.603Z,4.10
2023-04-02T04:48:01.783Z,4.57
2023-04-02T04:50:30.141Z,3.88
2023-04-02T04:52:56.961Z,3.67
2023-04-02T04:55:23.738Z,3.67
2023-04-02T04:57:50.824Z,3.60
2023-04-02T05:00:17.715Z,3.35
2023-04-02T05:02:44.423Z,3.63
2023-04-02T05:05:12.605Z,3.05
2023-04-02T05:07:39.442Z,2.95
2023-04-02T05:10:07.256Z,2.88
2023-04-02T05:12:37.954Z,3.95
2023-04-02T05:15:09.197Z,2.92
2023-04-02T05:17:36.307Z,2.72
2023-04-02T05:20:06.282Z,3.38
2023-04-02T05:22:33.664Z,3.20
2023-04-02T05:25:02.373Z,3.92
2023-04-02T05:27:29.724Z,3.45
2023-04-02T05:29:56.994Z,3.88
2023-04-02T05:32:24.297Z,3.53
2023-04-02T05:34:51.712Z,3.72
2023-04-02T05:37:18.889Z,5.03
2023-04-02T05:39:45.760Z,3.60
2023-04-02T05:42:14.584Z,3.65
2023-04-02T05:44:54.786Z,2.95
2023-04-02T05:47:22.301Z,3.05
2023-04-02T05:49:49.770Z,3.25
2023-04-02T05:52:17.967Z,2.72
2023-04-02T05:54:46.141Z,3.80
2023-04-02T05:57:14.171Z,2.80
2023-04-02T05:59:41.479Z,3.28
2023-04-02T06:02:08.390Z,2.72
2023-04-02T06:04:38.637Z,2.95
2023-04-02T06:07:06.116Z,1.83
2023-04-02T06:09:33.072Z,1.85
2023-04-02T06:12:00.132Z,2.00
2023-04-02T06:14:27.353Z,1.98
2023-04-02T06:16:54.630Z,2.03
2023-04-02T06:19:21.422Z,2.42
2023-04-02T06:21:49.957Z,2.15
2023-04-02T06:24:19.225Z,2.30
2023-04-02T06:26:46.248Z,2.78
2023-04-02T06:29:16.387Z,2.80
2023-04-02T06:31:43.153Z,2.45
2023-04-02T06:34:11.902Z,2.42
2023-04-02T06:36:40.002Z,2.45
2023-04-02T06:39:09.050Z,2.63
2023-04-02T06:41:37.092Z,2.58
2023-04-02T06:44:22.184Z,2.63
2023-04-02T06:47:05.976Z,3.00
2023-04-02T06:49:33.394Z,2.40
2023-04-02T06:52:02.901Z,2.70
2023-04-02T06:54:30.745Z,2.63
2023-04-02T06:57:01.754Z,2.28
2023-04-02T06:59:37.863Z,2.70
2023-04-02T07:02:08.335Z,2.70
2023-04-02T07:04:35.472Z,3.10
2023-04-02T07:07:03.088Z,2.85
2023-04-02T07:09:33.784Z,3.03
2023-04-02T07:12:03.323Z,2.50
2023-04-02T07:14:30.367Z,2.20
2023-04-02T07:16:57.284Z,2.28
2023-04-02T07:19:24.033Z,2.33
2023-04-02T07:21:55.386Z,2.38
2023-04-02T07:24:23.902Z,2.40
2023-04-02T07:26:50.718Z,2.65
2023-04-02T07:29:17.572Z,2.35
2023-04-02T07:31:44.292Z,2.40
2023-04-02T07:34:11.098Z,2.28
2023-04-02T07:36:37.780Z,2.20
2023-04-02T07:39:04.623Z,2.85
2023-04-02T07:41:31.493Z,2.30
2023-04-02T07:43:58.235Z,2.80
2023-04-02T07:46:26.029Z,2.28
2023-04-02T07:48:52.884Z,2.60
2023-04-02T07:51:19.615Z,3.00
2023-04-02T07:53:50.337Z,2.38
2023-04-02T07:56:18.080Z,2.47
2023-04-02T07:58:44.824Z,2.53
2023-04-02T08:01:11.577Z,2.63
2023-04-02T08:03:38.422Z,2.20
2023-04-02T08:06:06.637Z,2.25
2023-04-02T08:08:33.330Z,2.30
2023-04-02T08:11:00.147Z,2.25
2023-04-02T08:13:26.898Z,2.42
2023-04-02T08:15:53.690Z,2.90
2023-04-02T08:18:20.516Z,2.15
2023-04-02T08:20:47.323Z,2.30
2023-04-02T08:23:15.467Z,2.65
2023-04-02T08:25:42.270Z,2.30
2023-04-02T08:28:08.932Z,2.22
2023-04-02T08:30:35.978Z,1.95
2023-04-02T08:33:02.747Z,2.38
2023-04-02T08:35:29.482Z,2.80
2023-04-02T08:37:56.314Z,2.55
2023-04-02T08:40:23.277Z,2.45
2023-04-02T08:42:49.965Z,2.88
2023-04-02T08:45:24.957Z,2.45
2023-04-02T08:50:20.768Z,2.10
2023-04-02T08:52:47.554Z,2.30
2023-04-02T08:55:15.001Z,2.78
2023-04-02T08:57:41.805Z,2.95
2023-04-02T09:00:11.322Z,2.33
2023-04-02T09:02:38.235Z,2.45
2023-04-02T09:05:05.099Z,2.60
2023-04-02T09:07:33.433Z,2.22
2023-04-02T09:10:00.565Z,2.47
2023-04-02T09:12:27.322Z,2.92
2023-04-02T09:14:54.066Z,2.90
2023-04-02T09:17:20.919Z,2.30
2023-04-02T09:19:47.706Z,2.55
2023-04-02T09:22:15.057Z,2.35
2023-04-02T09:24:41.924Z,2.50
2023-04-02T09:27:08.682Z,2.20
2023-04-02T09:29:35.506Z,2.78
2023-04-02T09:32:02.494Z,2.65
2023-04-02T09:34:29.774Z,2.58
2023-04-02T09:36:56.953Z,2.65
2023-04-02T09:39:23.711Z,2.40
2023-04-02T09:42:02.839Z,2.70
2023-04-02T09:44:32.046Z,3.00
2023-04-02T09:47:04.068Z,3.03
2023-04-02T09:49:31.141Z,2.28
2023-04-02T09:51:57.799Z,2.63
2023-04-02T09:54:26.819Z,2.72
2023-04-02T09:56:53.503Z,2.45
2023-04-02T09:59:23.337Z,2.47
2023-04-02T10:01:50.077Z,2.40
2023-04-02T10:04:16.811Z,2.40
2023-04-02T10:06:43.565Z,2.70
2023-04-02T10:09:10.375Z,2.20
2023-04-02T10:11:46.316Z,2.58
2023-04-02T10:14:13.662Z,2.35
2023-04-02T10:16:40.749Z,2.33
2023-04-02T10:19:07.680Z,2.05
2023-04-02T10:21:34.404Z,2.35
2023-04-02T10:24:02.867Z,2.80
2023-04-02T10:26:29.656Z,2.22
2023-04-02T10:28:56.714Z,2.35
2023-04-02T10:31:25.469Z,2.50
2023-04-02T10:33:52.410Z,2.55
2023-04-02T10:36:19.522Z,2.92
2023-04-02T10:38:46.270Z,2.85
2023-04-02T10:41:12.961Z,2.60
2023-04-02T10:43:39.781Z,2.30
2023-04-02T10:46:06.878Z,2.42
2023-04-02T10:48:33.614Z,2.85
2023-04-02T10:51:00.440Z,2.78
2023-04-02T10:53:27.212Z,2.30
2023-04-02T10:55:53.894Z,2.90
2023-04-02T10:58:20.656Z,2.22
2023-04-02T11:00:47.371Z,2.60
2023-04-02T11:03:14.257Z,2.38
2023-04-02T11:05:43.855Z,2.70
2023-04-02T11:08:11.024Z,2.97
2023-04-02T11:10:37.785Z,2.70
2023-04-02T11:13:04.568Z,2.40
2023-04-02T11:15:31.263Z,2.00
2023-04-02T11:17:58.014Z,2.30
2023-04-02T11:20:24.802Z,2.60
2023-04-02T11:22:51.551Z,2.70
2023-04-02T11:25:18.254Z,2.45
2023-04-02T11:27:45.258Z,2.58
2023-04-02T11:30:13.890Z,2.05
2023-04-02T11:32:42.501Z,2.25
2023-04-02T11:35:09.264Z,2.50
2023-04-02T11:37:36.098Z,2.10
2023-04-02T11:40:06.033Z,2.28
2023-04-02T11:42:32.907Z,2.70
2023-04-02T11:44:59.781Z,2.47
2023-04-02T11:47:26.643Z,2.03
2023-04-02T11:49:53.526Z,2.38
2023-04-02T11:52:21.038Z,3.03
2023-04-02T11:54:47.760Z,2.40
2023-04-02T11:57:14.483Z,2.15
2023-04-02T11:59:41.170Z,2.40
2023-04-02T12:02:08.022Z,2.15
2023-04-02T12:04:34.797Z,1.88
2023-04-02T12:07:01.608Z,1.92
2023-04-02T12:09:28.403Z,1.95
2023-04-02T12:11:55.541Z,2.50
2023-04-02T12:14:22.218Z,2.13
2023-04-02T12:16:49.064Z,2.13
2023-04-02T12:19:15.896Z,1.90
2023-04-02T12:21:43.765Z,1.90
2023-04-02T12:24:10.587Z,2.05
2023-04-02T12:26:37.769Z,2.42
2023-04-02T12:29:04.669Z,2.10
2023-04-02T12:31:33.606Z,2.40
2023-04-02T12:34:00.373Z,2.10
2023-04-02T12:36:27.451Z,2.10
2023-04-02T12:38:54.212Z,2.17
2023-04-02T12:41:21.588Z,2.42
2023-04-02T12:43:48.344Z,2.15
2023-04-02T12:46:15.117Z,2.20
2023-04-02T12:48:41.882Z,2.42
2023-04-02T12:51:08.617Z,2.40
2023-04-02T12:53:35.315Z,1.90
2023-04-02T12:56:02.145Z,2.17
2023-04-02T12:58:28.868Z,2.45
2023-04-02T13:00:55.868Z,2.38
2023-04-02T13:03:22.721Z,2.30
2023-04-02T13:05:49.490Z,2.40
2023-04-02T13:08:16.506Z,1.83
2023-04-02T13:10:43.291Z,2.25
2023-04-02T13:13:09.969Z,2.20
2023-04-02T13:15:37.158Z,2.17
2023-04-02T13:18:04.029Z,2.38
2023-04-02T13:20:30.867Z,2.03
2023-04-02T13:22:57.552Z,2.80
2023-04-02T13:25:24.260Z,2.17
2023-04-02T13:27:51.032Z,2.20
2023-04-02T13:30:17.786Z,1.80
2023-04-02T13:32:44.579Z,1.42
2023-04-02T13:35:11.515Z,1.67
2023-04-02T13:37:38.300Z,2.97
2023-04-02T13:40:06.086Z,2.10
2023-04-02T13:42:33.988Z,1.80
2023-04-02T13:45:00.737Z,2.05
2023-04-02T13:47:27.846Z,1.65
2023-04-02T13:49:54.610Z,2.05
2023-04-02T13:52:21.426Z,1.92
2023-04-02T13:54:51.253Z,3.47
2023-04-02T13:57:18.030Z,2.00
2023-04-02T13:59:44.725Z,2.20
2023-04-02T14:02:11.978Z,2.28
2023-04-02T14:04:38.738Z,1.85
2023-04-02T14:07:05.506Z,2.47
2023-04-02T14:09:32.177Z,2.30
2023-04-02T14:11:59.042Z,2.10
2023-04-02T14:14:26.090Z,2.13
2023-04-02T14:16:52.909Z,1.90
2023-04-02T14:19:19.651Z,1.75
2023-04-02T14:21:46.440Z,2.10
2023-04-02T14:24:13.108Z,1.75
2023-04-02T14:26:39.878Z,1.80
2023-04-02T14:29:07.383Z,1.85
2023-04-02T14:31:34.254Z,1.98
2023-04-02T14:34:01.000Z,3.65
2023-04-02T14:36:27.712Z,2.20
2023-04-02T14:38:54.406Z,2.50
2023-04-02T14:41:21.556Z,2.10
2023-04-02T14:43:48.230Z,1.98
2023-04-02T14:46:15.058Z,1.83
2023-04-02T14:48:42.004Z,1.70
2023-04-02T14:51:08.795Z,1.80
2023-04-02T14:53:37.476Z,1.60
2023-04-02T14:56:04.200Z,1.73
2023-04-02T14:58:30.911Z,2.00
2023-04-02T15:00:57.752Z,1.98
2023-04-02T15:03:24.541Z,1.75
2023-04-02T15:05:51.611Z,2.08
2023-04-02T15:08:18.346Z,1.50
2023-04-02T15:10:45.194Z,1.85
2023-04-02T15:13:11.927Z,1.90
2023-04-02T15:15:40.913Z,1.52
2023-04-02T15:18:07.987Z,1.98
2023-04-02T15:20:34.912Z,2.20
2023-04-02T15:23:02.000Z,1.80
2023-04-02T15:25:28.726Z,1.88
2023-04-02T15:27:56.102Z,2.15
2023-04-02T15:30:23.613Z,1.70
2023-04-02T15:32:50.510Z,1.80
2023-04-02T15:35:17.260Z,1.70
2023-04-02T15:37:43.970Z,1.90
2023-04-02T15:40:10.734Z,1.85
2023-04-02T15:42:37.470Z,1.90
2023-04-02T15:45:04.251Z,1.90
2023-04-02T15:47:31.148Z,1.75
2023-04-02T15:49:57.963Z,1.77
2023-04-02T15:52:25.105Z,2.10
2023-04-02T15:54:52.036Z,1.85
2023-04-02T15:57:18.774Z,1.77
2023-04-02T15:59:45.545Z,1.73
2023-04-02T16:02:12.211Z,1.88
2023-04-02T16:04:38.974Z,1.70
2023-04-02T16:07:05.977Z,1.98
2023-04-02T16:09:32.933Z,2.05
2023-04-02T16:11:59.689Z,1.98
2023-04-02T16:14:26.550Z,1.70
2023-04-02T16:16:53.325Z,2.08
2023-04-02T16:19:22.823Z,1.80
2023-04-02T16:21:49.533Z,1.77
2023-04-02T16:24:16.271Z,1.90
2023-04-02T16:26:42.950Z,1.80
2023-04-02T16:29:09.764Z,1.90
2023-04-02T16:31:36.571Z,1.52
2023-04-02T16:34:03.447Z,1.63
2023-04-02T16:36:30.194Z,2.25
2023-04-02T16:38:57.001Z,1.77
2023-04-02T16:41:23.716Z,2.17
2023-04-02T16:43:50.724Z,1.95
2023-04-02T16:46:25.085Z,1.67
2023-04-02T16:48:58.909Z,2.72
2023-04-02T16:51:26.151Z,1.90
2023-04-02T16:54:01.500Z,1.88
2023-04-02T16:56:29.353Z,2.03
2023-04-02T16:58:56.742Z,1.70
2023-04-02T17:01:23.596Z,2.20
2023-04-02T17:03:50.936Z,1.80
2023-04-02T17:06:17.844Z,2.13
2023-04-02T17:08:44.524Z,1.83
2023-04-02T17:11:11.337Z,2.00
2023-04-02T17:13:38.039Z,1.98
2023-04-02T17:16:04.795Z,2.47
2023-04-02T17:18:31.500Z,2.08
2023-04-02T17:20:58.220Z,2.42
2023-04-02T17:23:24.909Z,2.33
2023-04-02T17:25:51.733Z,2.10
2023-04-02T17:28:18.407Z,2.20
2023-04-02T17:30:46.959Z,2.13
2023-04-02T17:33:13.671Z,1.70
2023-04-02T17:35:40.426Z,2.05
2023-04-02T17:38:07.584Z,2.00
2023-04-02T17:40:34.496Z,2.05
2023-04-02T17:43:01.300Z,2.70
2023-04-02T17:45:28.135Z,1.90
2023-04-02T17:47:54.896Z,2.42
2023-04-02T17:50:21.711Z,2.05
2023-04-02T17:52:48.422Z,1.88
2023-04-02T17:55:15.094Z,2.20
2023-04-02T17:57:41.867Z,2.65
2023-04-02T18:00:08.500Z,2.20
2023-04-02T18:02:38.804Z,2.53
2023-04-02T18:05:06.040Z,3.22
2023-04-02T18:07:32.763Z,2.95
2023-04-02T18:09:59.524Z,3.70
2023-04-02T18:12:26.245Z,3.00
2023-04-02T18:14:53.061Z,3.72
2023-04-02T18:17:19.775Z,3.30
2023-04-02T18:19:46.488Z,3.03
2023-04-02T18:22:13.443Z,3.13
2023-04-02T18:24:40.352Z,3.30
2023-04-02T18:27:07.067Z,2.60
2023-04-02T18:29:33.837Z,4.32
2023-04-02T18:32:00.517Z,2.83
2023-04-02T18:34:27.516Z,3.50
2023-04-02T18:36:54.295Z,2.85
2023-04-02T18:39:21.272Z,3.10
2023-04-02T18:41:47.999Z,2.72
2023-04-02T18:44:14.716Z,2.97
2023-04-02T18:46:41.700Z,2.95
2023-04-02T18:49:08.515Z,3.83
2023-04-02T18:51:35.317Z,6.53
2023-04-02T18:54:02.065Z,4.13
2023-04-02T18:56:28.808Z,2.92
2023-04-02T18:58:56.927Z,3.25
2023-04-02T19:01:23.985Z,3.28
2023-04-02T19:03:51.182Z,2.72
2023-04-02T19:06:19.372Z,2.70
2023-04-02T19:08:47.807Z,5.13
2023-04-02T19:11:14.979Z,4.00
2023-04-02T19:13:41.805Z,3.00
2023-04-02T19:16:08.577Z,3.28
2023-04-02T19:18:35.588Z,3.42
2023-04-02T19:21:02.305Z,2.83
2023-04-02T19:23:29.855Z,3.20
2023-04-02T19:25:56.750Z,3.60
2023-04-02T19:28:23.522Z,2.72
2023-04-02T19:30:50.591Z,2.95
2023-04-02T19:33:17.380Z,2.97
2023-04-02T19:35:44.105Z,3.80
2023-04-02T19:38:10.969Z,3.70
2023-04-02T19:40:37.749Z,4.05
2023-04-02T19:43:04.647Z,3.85
2023-04-02T19:45:31.405Z,4.03
2023-04-02T19:47:58.148Z,4.25
2023-04-02T19:50:24.974Z,4.45
2023-04-02T19:52:51.711Z,4.82
2023-04-02T19:55:18.454Z,4.85
2023-04-02T19:57:45.264Z,4.82
2023-04-02T20:00:12.141Z,4.07
2023-04-02T20:02:38.851Z,3.95
2023-04-02T20:05:05.695Z,3.75
2023-04-02T20:07:32.409Z,3.90
2023-04-02T20:09:59.113Z,3.33
2023-04-02T20:12:25.954Z,3.72
2023-04-02T20:14:52.635Z,3.58
2023-04-02T20:17:19.416Z,3.47
2023-04-02T20:19:46.292Z,3.88
2023-04-02T20:22:13.246Z,3.33
2023-04-02T20:24:41.105Z,3.40
2023-04-02T20:27:07.814Z,3.80
2023-04-02T20:29:34.527Z,3.40
2023-04-02T20:32:01.452Z,3.50
2023-04-02T20:34:28.506Z,3.55
2023-04-02T20:36:55.348Z,3.60
2023-04-02T20:39:22.329Z,3.17
2023-04-02T20:41:49.151Z,3.33
2023-04-02T20:44:15.993Z,3.60
2023-04-02T20:46:42.768Z,3.53
2023-04-02T20:49:09.522Z,2.95
2023-04-02T20:51:36.290Z,2.92
2023-04-02T20:54:03.166Z,3.90
2023-04-02T20:56:30.101Z,3.30
2023-04-02T20:58:56.835Z,3.63
2023-04-02T21:01:23.608Z,3.95
2023-04-02T21:03:50.460Z,3.58
2023-04-02T21:06:17.196Z,3.25
2023-04-02T21:08:43.962Z,3.40
2023-04-02T21:11:10.888Z,3.03
2023-04-02T21:13:37.680Z,3.28
2023-04-02T21:16:04.509Z,3.80
2023-04-02T21:18:31.319Z,3.17
2023-04-02T21:20:58.034Z,4.07
2023-04-02T21:23:24.868Z,3.60
2023-04-02T21:25:51.569Z,4.40
2023-04-02T21:28:18.316Z,4.13
2023-04-02T21:30:45.030Z,3.67
2023-04-02T21:33:11.832Z,3.80
2023-04-02T21:35:38.708Z,3.65
2023-04-02T21:38:05.748Z,4.07
2023-04-02T21:40:32.440Z,3.35
2023-04-02T21:42:59.174Z,3.63
2023-04-02T21:45:26.135Z,4.25
2023-04-02T21:47:52.977Z,3.22
2023-04-02T21:50:19.744Z,3.55
2023-04-02T21:52:46.481Z,3.10
2023-04-02T21:55:13.308Z,4.22
2023-04-02T21:57:40.127Z,3.53
2023-04-02T22:00:09.166Z,3.38
2023-04-02T22:02:35.923Z,3.83
2023-04-02T22:05:02.613Z,4.95
2023-04-02T22:07:29.355Z,3.38
2023-04-02T22:09:56.105Z,2.97
2023-04-02T22:12:22.821Z,3.22
2023-04-02T22:14:49.607Z,3.00
2023-04-02T22:17:16.333Z,3.15
2023-04-02T22:19:43.065Z,3.10
2023-04-02T22:22:09.856Z,3.05
2023-04-02T22:24:36.614Z,3.38
2023-04-02T22:27:03.387Z,2.67
2023-04-02T22:29:30.255Z,3.10
2023-04-02T22:31:56.994Z,2.88
2023-04-02T22:34:23.784Z,3.03
2023-04-02T22:36:50.584Z,2.80
2023-04-02T22:39:17.329Z,2.72
2023-04-02T22:41:44.063Z,2.90
2023-04-02T22:44:10.944Z,2.30
2023-04-02T22:46:37.635Z,2.03
2023-04-02T22:49:04.611Z,2.05
2023-04-02T22:51:31.553Z,2.20
2023-04-02T22:53:58.303Z,2.13
2023-04-02T22:56:25.170Z,2.58
2023-04-02T22:58:51.863Z,2.00
2023-04-02T23:01:18.609Z,1.88
2023-04-02T23:03:45.745Z,2.22
2023-04-02T23:06:12.548Z,1.80
2023-04-02T23:08:39.311Z,1.90
2023-04-02T23:11:06.209Z,2.13
2023-04-02T23:13:33.241Z,1.90
2023-04-02T23:16:00.036Z,1.95
2023-04-02T23:18:26.814Z,1.90
2023-04-02T23:20:53.552Z,1.88
2023-04-02T23:23:20.280Z,1.85
2023-04-02T23:25:46.979Z,2.42
2023-04-02T23:28:13.809Z,1.90
2023-04-02T23:30:40.516Z,2.05
2023-04-02T23:33:07.269Z,2.28
2023-04-02T23:35:34.107Z,1.95
2023-04-02T23:38:00.826Z,2.42
2023-04-02T23:40:27.598Z,1.58
2023-04-02T23:42:54.353Z,1.75
2023-04-02T23:45:21.127Z,1.90
2023-04-02T23:47:47.885Z,2.53
2023-04-02T23:50:14.786Z,1.77
2023-04-02T23:52:41.468Z,1.85
2023-04-02T23:55:08.188Z,2.20
2023-04-02T23:57:34.932Z,2.15
